Aviation Digital Data Service (ADDS)

Output produced by TAFs form (0959 UTC 23 April 2017)
found at http://www.aviationweather.gov/adds/tafs/
 
METAR text: RJAW 230900Z 02008KT 4000 SHRA BR SCT003 BKN010 23/22 Q1011 RMK 3ST003 5CU010 A2988
Conditions at: RJAW (IWOJIMA (JMSDF) , JP) observed 0900 UTC 23 April 2017
Temperature: 23.0°C (73°F)
Dewpoint: 22.0°C (72°F) [RH = 94%]
Pressure (altimeter): 29.85 inches Hg (1011.0 mb)
Winds: from the NNE (20 degrees) at 9 MPH (8 knots; 4.2 m/s)
Visibility: 2.49 miles (4.01 km)
Ceiling: 1000 feet AGL
Clouds: scattered clouds at 300 feet AGL
broken clouds at 1000 feet AGL
Weather: SHRA BR  (rain showers, mist)